createdAt,value
2023-05-18T00:00:49.415Z,101866.36
2023-05-18T00:05:58.034Z,101867.17
2023-05-18T00:11:06.268Z,101872.96
2023-05-18T00:16:16.020Z,101880.26
2023-05-18T00:21:23.262Z,101883.27
2023-05-18T00:26:30.376Z,101890.87
2023-05-18T00:31:38.767Z,101892.18
2023-05-18T00:36:47.118Z,101893.25
2023-05-18T00:41:54.270Z,101892.73
2023-05-18T00:47:02.192Z,101898.64
2023-05-18T00:52:09.958Z,101895.17
2023-05-18T00:57:19.289Z,101891.02
2023-05-18T01:02:30.730Z,101889.37
2023-05-18T01:07:37.979Z,101890.42
2023-05-18T01:12:50.576Z,101895.43
2023-05-18T01:18:10.642Z,101896.45
2023-05-18T01:23:55.177Z,101904.12
2023-05-18T01:29:05.304Z,101910.83
2023-05-18T01:34:12.606Z,101915.84
2023-05-18T01:39:20.369Z,101920.67
2023-05-18T01:44:33.119Z,101921.64
2023-05-18T01:49:44.664Z,101916.94
2023-05-18T01:54:55.190Z,101918.90
2023-05-18T02:00:07.875Z,101917.87
2023-05-18T02:05:24.389Z,101925.27
2023-05-18T02:10:31.732Z,101924.59
2023-05-18T02:15:39.584Z,101933.69
2023-05-18T02:20:49.343Z,101936.93
2023-05-18T02:25:56.611Z,101940.83
2023-05-18T02:31:13.198Z,101932.64
2023-05-18T02:36:22.820Z,101931.67
2023-05-18T02:41:29.905Z,101929.50
2023-05-18T02:46:37.263Z,101936.30
2023-05-18T02:51:46.720Z,101934.23
2023-05-18T02:56:57.050Z,101935.66
2023-05-18T03:02:16.877Z,101940.44
2023-05-18T03:07:24.306Z,101950.29
2023-05-18T03:12:31.564Z,101957.85
2023-05-18T03:17:41.810Z,101958.45
2023-05-18T03:22:49.245Z,101962.52
2023-05-18T03:27:57.012Z,101967.23
2023-05-18T03:33:05.059Z,101973.06
2023-05-18T03:38:11.084Z,101975.96
2023-05-18T03:43:20.331Z,101976.91
2023-05-18T03:48:28.640Z,101977.68
2023-05-18T03:53:36.422Z,101978.30
2023-05-18T03:58:46.174Z,101990.63
2023-05-18T04:03:56.691Z,101989.89
2023-05-18T04:09:07.063Z,101995.83
2023-05-18T04:14:17.281Z,102002.13
2023-05-18T04:19:25.276Z,102009.14
2023-05-18T04:24:32.838Z,102008.85
2023-05-18T04:29:44.004Z,102010.48
2023-05-18T04:34:51.463Z,102022.27
2023-05-18T04:40:02.273Z,102027.56
2023-05-18T04:45:16.757Z,102029.88
2023-05-18T04:50:26.115Z,102036.59
2023-05-18T04:55:33.888Z,102043.64
2023-05-18T05:00:49.862Z,102045.58
2023-05-18T05:05:57.019Z,102052.15
2023-05-18T05:11:04.931Z,102057.35
2023-05-18T05:16:14.389Z,102061.08
2023-05-18T05:21:21.653Z,102057.90
2023-05-18T05:26:28.884Z,102055.40
2023-05-18T05:31:36.907Z,102059.11
2023-05-18T05:36:44.522Z,102059.49
2023-05-18T05:41:52.045Z,102068.67
2023-05-18T05:46:59.754Z,102076.45
2023-05-18T05:52:10.350Z,102083.29
2023-05-18T05:57:19.763Z,102086.65
2023-05-18T06:02:28.873Z,102086.13
2023-05-18T06:07:37.909Z,102090.69
2023-05-18T06:12:45.749Z,102094.16
2023-05-18T06:17:53.226Z,102096.27
2023-05-18T06:23:01.276Z,102101.39
2023-05-18T06:28:26.917Z,102102.10
2023-05-18T06:33:40.154Z,102096.49
2023-05-18T06:38:46.229Z,102101.41
2023-05-18T06:43:53.369Z,102105.55
2023-05-18T06:49:04.969Z,102106.68
2023-05-18T06:54:10.620Z,102109.52
2023-05-18T06:59:18.048Z,102117.67
2023-05-18T07:04:25.279Z,102116.56
2023-05-18T07:09:32.500Z,102116.15
2023-05-18T07:14:39.853Z,102120.80
2023-05-18T07:19:47.005Z,102120.35
2023-05-18T07:24:54.086Z,102125.27
2023-05-18T07:30:01.143Z,102125.42
2023-05-18T07:35:09.169Z,102129.85
2023-05-18T07:40:16.624Z,102128.92
2023-05-18T07:45:24.104Z,102131.02
2023-05-18T07:50:30.716Z,102133.73
2023-05-18T07:55:37.947Z,102133.77
2023-05-18T08:00:45.645Z,102135.86
2023-05-18T08:05:53.473Z,102138.41
2023-05-18T08:11:02.125Z,102140.50
2023-05-18T08:16:12.400Z,102144.23
2023-05-18T08:21:20.341Z,102141.92
2023-05-18T08:26:27.684Z,102142.99
2023-05-18T08:31:35.054Z,102142.27
2023-05-18T08:36:44.956Z,102138.98
2023-05-18T08:41:57.239Z,102138.54
2023-05-18T08:47:07.490Z,102139.67
2023-05-18T08:52:19.183Z,102145.63
2023-05-18T08:57:29.815Z,102144.63
2023-05-18T09:02:38.091Z,102151.62
2023-05-18T09:07:47.272Z,102147.17
2023-05-18T09:12:56.268Z,102137.41
2023-05-18T09:18:04.003Z,102137.45
2023-05-18T09:23:12.153Z,102132.61
2023-05-18T09:28:29.291Z,102130.18
2023-05-18T09:33:39.208Z,102132.81
2023-05-18T09:38:47.568Z,102130.52
2023-05-18T09:43:56.007Z,102133.77
2023-05-18T09:49:04.900Z,102130.33
2023-05-18T09:54:12.260Z,102129.67
2023-05-18T09:59:19.413Z,102121.21
2023-05-18T10:04:36.276Z,102121.15
2023-05-18T10:09:45.458Z,102120.08
2023-05-18T10:14:53.241Z,102119.93
2023-05-18T10:19:59.435Z,102118.71
2023-05-18T10:25:11.770Z,102106.20
2023-05-18T10:30:19.447Z,102101.44
2023-05-18T10:35:28.598Z,102107.92
2023-05-18T10:40:37.514Z,102109.33
2023-05-18T10:45:47.702Z,102107.55
2023-05-18T10:50:56.801Z,102106.35
2023-05-18T10:56:04.193Z,102101.08
2023-05-18T11:01:15.006Z,102105.05
2023-05-18T11:06:27.461Z,102106.85
2023-05-18T11:11:54.141Z,102106.23
2023-05-18T11:17:22.065Z,102105.49
2023-05-18T11:22:43.716Z,102104.00
2023-05-18T11:27:51.555Z,102100.14
2023-05-18T11:33:11.362Z,102096.46
2023-05-18T11:38:19.616Z,102092.65
2023-05-18T11:43:28.213Z,102092.63
2023-05-18T11:48:36.053Z,102092.21
2023-05-18T11:53:48.321Z,102092.25
2023-05-18T11:59:13.664Z,102086.73
2023-05-18T12:04:22.521Z,102092.19
2023-05-18T12:09:32.271Z,102094.62
2023-05-18T12:14:42.556Z,102097.73
2023-05-18T12:19:50.661Z,102095.27
2023-05-18T12:24:57.717Z,102091.86
2023-05-18T12:30:05.264Z,102087.34
2023-05-18T12:35:12.749Z,102082.13
2023-05-18T12:40:21.129Z,102080.60
2023-05-18T12:45:31.892Z,102085.98
2023-05-18T12:50:47.089Z,102083.77
2023-05-18T12:56:09.775Z,102078.41
2023-05-18T13:01:17.817Z,102081.84
2023-05-18T13:06:25.006Z,102085.86
2023-05-18T13:11:32.069Z,102084.73
2023-05-18T13:16:45.868Z,102080.98
2023-05-18T13:22:00.034Z,102073.10
2023-05-18T13:27:07.572Z,102069.02
2023-05-18T13:32:14.711Z,102069.06
2023-05-18T13:37:22.419Z,102071.39
2023-05-18T13:42:29.769Z,102070.23
2023-05-18T13:47:37.104Z,102070.95
2023-05-18T13:52:44.264Z,102067.52
2023-05-18T13:57:51.585Z,102070.43
2023-05-18T14:02:58.748Z,102065.44
2023-05-18T14:08:06.129Z,102065.36
2023-05-18T14:13:13.419Z,102061.31
2023-05-18T14:18:20.796Z,102054.83
2023-05-18T14:23:31.517Z,102061.01
2023-05-18T14:28:49.842Z,102052.58
2023-05-18T14:33:57.564Z,102053.66
2023-05-18T14:39:05.012Z,102053.25
2023-05-18T14:44:13.839Z,102053.05
2023-05-18T14:49:21.194Z,102053.89
2023-05-18T14:54:31.669Z,102051.14
2023-05-18T14:59:40.191Z,102052.54
2023-05-18T15:04:47.514Z,102048.58
2023-05-18T15:09:55.488Z,102055.58
2023-05-18T15:15:02.651Z,102051.75
2023-05-18T15:20:12.267Z,102048.19
2023-05-18T15:25:19.920Z,102047.27
2023-05-18T15:30:29.832Z,102045.50
2023-05-18T15:35:38.808Z,102051.48
2023-05-18T15:40:48.006Z,102048.66
2023-05-18T15:45:55.195Z,102053.96
2023-05-18T15:51:02.397Z,102055.09
2023-05-18T15:56:10.960Z,102053.48
2023-05-18T16:01:18.107Z,102054.73
2023-05-18T16:06:25.361Z,102056.08
2023-05-18T16:11:36.133Z,102052.70
2023-05-18T16:16:43.268Z,102056.10
2023-05-18T16:21:50.416Z,102061.68
2023-05-18T16:26:57.756Z,102063.70
2023-05-18T16:32:05.088Z,102060.95
2023-05-18T16:37:12.591Z,102058.18
2023-05-18T16:42:21.082Z,102057.58
2023-05-18T16:47:28.842Z,102060.92
2023-05-18T16:52:36.095Z,102059.23
2023-05-18T16:57:43.678Z,102062.00
2023-05-18T17:02:52.790Z,102063.60
2023-05-18T17:08:00.169Z,102068.09
2023-05-18T17:13:07.564Z,102070.08
2023-05-18T17:18:14.693Z,102072.14
2023-05-18T17:23:22.619Z,102074.98
2023-05-18T17:28:28.232Z,102079.98
2023-05-18T17:33:35.304Z,102083.52
2023-05-18T17:38:42.594Z,102083.85
2023-05-18T17:43:49.882Z,102091.21
2023-05-18T17:48:57.257Z,102095.73
2023-05-18T17:54:04.706Z,102100.09
2023-05-18T17:59:12.373Z,102110.58
2023-05-18T18:04:23.584Z,102115.52
2023-05-18T18:09:32.686Z,102114.86
2023-05-18T18:14:39.978Z,102117.81
2023-05-18T18:19:49.725Z,102120.75
2023-05-18T18:24:57.585Z,102123.37
2023-05-18T18:30:04.978Z,102123.71
2023-05-18T18:35:12.721Z,102124.83
2023-05-18T18:40:20.189Z,102128.41
2023-05-18T18:45:29.250Z,102136.16
2023-05-18T18:50:37.456Z,102136.67
2023-05-18T18:55:44.623Z,102142.08
2023-05-18T19:00:52.469Z,102148.11
2023-05-18T19:06:03.247Z,102150.61
2023-05-18T19:11:10.470Z,102158.64
2023-05-18T19:16:18.518Z,102161.98
2023-05-18T19:21:30.555Z,102161.70
2023-05-18T19:26:38.428Z,102165.36
2023-05-18T19:31:47.212Z,102164.45
2023-05-18T19:36:53.198Z,102167.93
2023-05-18T19:42:01.105Z,102171.55
2023-05-18T19:47:08.829Z,102173.17
2023-05-18T19:52:18.468Z,102171.80
2023-05-18T19:57:27.440Z,102175.77
2023-05-18T20:02:34.669Z,102179.11
2023-05-18T20:07:44.774Z,102183.10
2023-05-18T20:12:52.229Z,102188.86
2023-05-18T20:18:02.085Z,102194.80
2023-05-18T20:23:11.302Z,102198.40
2023-05-18T20:28:18.645Z,102200.36
2023-05-18T20:33:32.995Z,102204.70
2023-05-18T20:38:40.298Z,102209.00
2023-05-18T20:43:50.476Z,102210.15
2023-05-18T20:48:59.211Z,102217.37
2023-05-18T20:54:07.026Z,102213.70
2023-05-18T20:59:18.355Z,102218.24
2023-05-18T21:04:25.713Z,102219.40
2023-05-18T21:09:35.143Z,102219.21
2023-05-18T21:14:42.648Z,102218.40
2023-05-18T21:19:52.849Z,102221.13
2023-05-18T21:25:02.762Z,102224.61
2023-05-18T21:30:14.691Z,102226.63
2023-05-18T21:35:22.194Z,102227.45
2023-05-18T21:40:37.396Z,102225.67
2023-05-18T21:45:44.600Z,102225.96
2023-05-18T21:50:51.904Z,102224.31
2023-05-18T21:56:10.292Z,102226.85
2023-05-18T22:01:20.014Z,102232.14
2023-05-18T22:06:27.822Z,102229.42
2023-05-18T22:11:35.337Z,102228.13
2023-05-18T22:16:47.078Z,102227.45
2023-05-18T22:21:54.759Z,102227.14
2023-05-18T22:27:03.184Z,102230.45
2023-05-18T22:32:12.282Z,102233.87
2023-05-18T22:37:19.423Z,102237.29
2023-05-18T22:42:29.706Z,102230.45
2023-05-18T22:47:37.671Z,102229.70
2023-05-18T22:52:43.879Z,102227.95
2023-05-18T22:57:50.879Z,102227.79
2023-05-18T23:02:59.287Z,102222.45
2023-05-18T23:08:06.562Z,102221.73
2023-05-18T23:13:16.366Z,102219.65
2023-05-18T23:18:27.034Z,102217.95
2023-05-18T23:23:34.148Z,102216.17
2023-05-18T23:28:41.172Z,102215.70
2023-05-18T23:33:49.835Z,102215.13
2023-05-18T23:39:00.218Z,102215.20
2023-05-18T23:44:09.898Z,102216.58
2023-05-18T23:49:17.931Z,102214.07
2023-05-18T23:54:27.216Z,102219.00
2023-05-18T23:59:35.815Z,102223.20
